Time;durP1;ratioP1;P1;durP2;ratioP2;P2;SDS_P1;SDS_P2;PMS_P1;PMS_P2;Temp;Humidity;BMP_temperature;BMP_pressure;BME280_temperature;BME280_humidity;BME280_pressure;Samples;Min_cycle;Max_cycle;Signal;HPM_P1;HPM_P2
2021/12/20 00:02:30;;;;;;;;;;;;;;;;;;4181328;28;7518;-56
2021/12/20 00:04:52;;;;;;;;;;;;;;;;;;4181341;28;7003;-57
2021/12/20 00:07:14;;;;;;;;;;;;;;;;;;4181143;28;7989;-58
2021/12/20 00:09:35;;;;;;;;;;;;;;;;;;4181359;28;7021;-57
2021/12/20 00:11:57;;;;;;;;;;;;;;;;;;4180586;28;7463;-57
2021/12/20 00:14:18;;;;;;;;;;;;;;;;;;4181156;28;7018;-57
2021/12/20 00:16:40;;;;;;;;;;;;;;;;;;4181356;28;7015;-56
2021/12/20 00:19:02;;;;;;;;;;;;;;;;;;4181051;28;7017;-56
2021/12/20 00:21:23;;;;;;;;;;;;;;;;;;4181088;28;7268;-56
2021/12/20 00:23:44;;;;;;;;;;;;;;;;;;4181111;28;7452;-56
2021/12/20 00:26:06;;;;;;;;;;;;;;;;;;4180823;28;7045;-57
2021/12/20 00:28:27;;;;;;;;;;;;;;;;;;4180911;28;6994;-56
2021/12/20 00:30:49;;;;;;;;;;;;;;;;;;4180663;28;7030;-56
2021/12/20 00:33:11;;;;;;;;;;;;;;;;;;4180752;28;7247;-57
2021/12/20 00:35:33;;;;;;;;;;;;;;;;;;4180919;28;7200;-57
2021/12/20 00:40:34;;;;;;;;;;;;;;;;;;4180730;28;7036;-56
2021/12/20 00:42:56;;;;;;;;;;;;;;;;;;4180682;28;7156;-56
2021/12/20 00:45:17;;;;;;;;;;;;;;;;;;4180705;28;7032;-56
2021/12/20 00:47:38;;;;;;;;;;;;;;;;;;4180685;28;6978;-57
2021/12/20 00:50:01;;;;;;;;;;;;;;;;;;4180580;28;7068;-57
2021/12/20 00:52:22;;;;;;;;;;;;;;;;;;4180548;28;7014;-57
2021/12/20 00:54:43;;;;;;;;;;;;;;;;;;4180544;28;7010;-57
2021/12/20 00:57:05;;;;;;;;;;;;;;;;;;4180485;28;7361;-56
2021/12/20 00:59:26;;;;;;;;;;;;;;;;;;4180296;28;7129;-57
2021/12/20 01:01:47;;;;;;;;;;;;;;;;;;4180554;28;7003;-56
2021/12/20 01:04:09;;;;;;;;;;;;;;;;;;4180409;28;7254;-56
2021/12/20 01:06:31;;;;;;;;;;;;;;;;;;4180183;28;7127;-57
2021/12/20 01:08:53;;;;;;;;;;;;;;;;;;4180130;28;7210;-57
2021/12/20 01:11:20;;;;;;;;;;;;;;;;;;4180256;28;6995;-56
2021/12/20 01:13:41;;;;;;;;;;;;;;;;;;4180228;28;7040;-56
2021/12/20 01:16:05;;;;;;;;;;;;;;;;;;4180365;28;7041;-56
2021/12/20 01:18:27;;;;;;;;;;;;;;;;;;4180205;28;6992;-56
2021/12/20 01:20:48;;;;;;;;;;;;;;;;;;4180228;28;7068;-56
2021/12/20 01:23:11;;;;;;;;;;;;;;;;;;4180233;28;7290;-56
2021/12/20 01:25:32;;;;;;;;;;;;;;;;;;4183592;28;7057;-56
2021/12/20 01:27:53;;;;;;;;;;;;;;;;;;4183196;28;7018;-56
2021/12/20 01:30:15;;;;;;;;;;;;;;;;;;4167133;28;7159;-56
2021/12/20 01:32:36;;;;;;;;;;;;;;;;;;4167186;28;7019;-56
2021/12/20 01:34:58;;;;;;;;;;;;;;;;;;4167236;28;7015;-56
2021/12/20 01:37:19;;;;;;;;;;;;;;;;;;4167233;28;7179;-56
2021/12/20 01:39:42;;;;;;;;;;;;;;;;;;4166992;28;7038;-56
2021/12/20 01:42:04;;;;;;;;;;;;;;;;;;4167119;28;7021;-57
2021/12/20 01:44:26;;;;;;;;;;;;;;;;;;4167100;28;7018;-56
2021/12/20 01:46:47;;;;;;;;;;;;;;;;;;4166959;28;7027;-56
2021/12/20 01:49:12;;;;;;;;;;;;;;;;;;4184048;28;7010;-57
2021/12/20 01:51:47;;;;;;;;;;;;;;;;;;4183099;28;7018;-56
2021/12/20 01:54:08;;;;;;;;;;;;;;;;;;4183118;28;7057;-57
2021/12/20 01:56:34;;;;;;;;;;;;;;;;;;4183374;28;7006;-56
2021/12/20 01:59:01;;;;;;;;;;;;;;;;;;4182513;28;7014;-56
2021/12/20 02:01:44;;;;;;;;;;;;;;;;;;4182952;28;7061;-56
2021/12/20 02:04:08;;;;;;;;;;;;;;;;;;4182280;28;7002;-56
2021/12/20 02:06:31;;;;;;;;;;;;;;;;;;4182270;28;7096;-57
2021/12/20 02:08:52;;;;;;;;;;;;;;;;;;4182578;28;7144;-57
2021/12/20 02:11:14;;;;;;;;;;;;;;;;;;4182826;28;7073;-57
2021/12/20 02:13:37;;;;;;;;;;;;;;;;;;4182685;28;7174;-56
2021/12/20 02:15:58;;;;;;;;;;;;;;;;;;4183099;28;7015;-56
2021/12/20 02:18:19;;;;;;;;;;;;;;;;;;4183252;28;7006;-56
2021/12/20 02:20:42;;;;;;;;;;;;;;;;;;4181920;28;7049;-56
2021/12/20 02:23:03;;;;;;;;;;;;;;;;;;4182699;28;7006;-56
2021/12/20 02:25:24;;;;;;;;;;;;;;;;;;4182903;28;7013;-56
2021/12/20 02:27:46;;;;;;;;;;;;;;;;;;4182544;28;7147;-56
2021/12/20 02:30:13;;;;;;;;;;;;;;;;;;4182798;28;7459;-57
2021/12/20 02:38:18;;;;;;;;;;;;;;;;;;4182738;28;7515;-56
2021/12/20 02:40:39;;;;;;;;;;;;;;;;;;4177424;28;7087;-56
2021/12/20 02:43:01;;;;;;;;;;;;;;;;;;4173999;28;7051;-57
2021/12/20 02:45:29;;;;;;;;;;;;;;;;;;4178496;28;7022;-56
2021/12/20 02:47:51;;;;;;;;;;;;;;;;;;4180851;28;7020;-56
2021/12/20 02:50:12;;;;;;;;;;;;;;;;;;4180218;28;7019;-56
2021/12/20 02:52:33;;;;;;;;;;;;;;;;;;4180216;28;7018;-56
2021/12/20 02:54:56;;;;;;;;;;;;;;;;;;4168414;28;7055;-56
2021/12/20 02:57:17;;;;;;;;;;;;;;;;;;4165136;28;7006;-56
2021/12/20 02:59:39;;;;;;;;;;;;;;;;;;4174533;28;7264;-56
2021/12/20 03:02:01;;;;;;;;;;;;;;;;;;4180474;28;7226;-56
2021/12/20 03:04:23;;;;;;;;;;;;;;;;;;4179562;28;7091;-56
2021/12/20 03:06:44;;;;;;;;;;;;;;;;;;4180489;28;7019;-56
2021/12/20 03:09:06;;;;;;;;;;;;;;;;;;4180351;28;7217;-56
2021/12/20 03:11:29;;;;;;;;;;;;;;;;;;4180848;28;7119;-56
2021/12/20 03:13:51;;;;;;;;;;;;;;;;;;4178532;28;7332;-56
2021/12/20 03:16:12;;;;;;;;;;;;;;;;;;4179861;28;7167;-56
2021/12/20 03:18:33;;;;;;;;;;;;;;;;;;4180222;28;7385;-56
2021/12/20 03:20:55;;;;;;;;;;;;;;;;;;4179934;28;7335;-56
2021/12/20 03:23:16;;;;;;;;;;;;;;;;;;4180222;28;7040;-56
2021/12/20 03:25:38;;;;;;;;;;;;;;;;;;4180336;28;7566;-55
2021/12/20 03:28:05;;;;;;;;;;;;;;;;;;4179815;28;7016;-56
2021/12/20 03:30:27;;;;;;;;;;;;;;;;;;4180313;28;7158;-56
2021/12/20 03:32:48;;;;;;;;;;;;;;;;;;4180124;28;7006;-56
2021/12/20 03:35:10;;;;;;;;;;;;;;;;;;4179760;28;7018;-57
2021/12/20 03:37:31;;;;;;;;;;;;;;;;;;4180306;28;7007;-56
2021/12/20 03:39:52;;;;;;;;;;;;;;;;;;4181688;28;7173;-56
2021/12/20 03:42:14;;;;;;;;;;;;;;;;;;4181682;28;7047;-56
2021/12/20 03:44:43;;;;;;;;;;;;;;;;;;4181706;28;7006;-56
2021/12/20 03:47:04;;;;;;;;;;;;;;;;;;4180479;28;7015;-56
2021/12/20 03:49:26;;;;;;;;;;;;;;;;;;4181698;28;7134;-56
2021/12/20 03:51:47;;;;;;;;;;;;;;;;;;4181344;28;7002;-56
2021/12/20 03:54:08;;;;;;;;;;;;;;;;;;4181452;28;7166;-56
2021/12/20 03:56:29;;;;;;;;;;;;;;;;;;4181767;28;8041;-56
2021/12/20 03:58:51;;;;;;;;;;;;;;;;;;4181415;28;6995;-56
2021/12/20 04:01:13;;;;;;;;;;;;;;;;;;4181406;28;7133;-56
2021/12/20 04:03:35;;;;;;;;;;;;;;;;;;4181443;28;7426;-56
2021/12/20 04:05:56;;;;;;;;;;;;;;;;;;4180982;28;7002;-56
2021/12/20 04:08:17;;;;;;;;;;;;;;;;;;4181381;28;7019;-55
2021/12/20 04:10:39;;;;;;;;;;;;;;;;;;4180531;28;6990;-56
2021/12/20 04:13:00;;;;;;;;;;;;;;;;;;4180861;28;7055;-56
2021/12/20 04:15:21;;;;;;;;;;;;;;;;;;4180045;28;7026;-56
2021/12/20 04:17:44;;;;;;;;;;;;;;;;;;4179977;28;7006;-56
2021/12/20 04:20:06;;;;;;;;;;;;;;;;;;4181284;28;7194;-56
2021/12/20 04:22:27;;;;;;;;;;;;;;;;;;4181093;28;7003;-56
2021/12/20 04:24:49;;;;;;;;;;;;;;;;;;4181175;28;7007;-56
2021/12/20 04:27:10;;;;;;;;;;;;;;;;;;4181010;28;7011;-56
2021/12/20 04:29:31;;;;;;;;;;;;;;;;;;4181123;28;7002;-56
2021/12/20 04:31:53;;;;;;;;;;;;;;;;;;4180969;28;7438;-56
2021/12/20 04:34:16;;;;;;;;;;;;;;;;;;4181015;28;7010;-57
2021/12/20 04:36:37;;;;;;;;;;;;;;;;;;4180747;28;7040;-56
2021/12/20 04:38:58;;;;;;;;;;;;;;;;;;4180947;28;7203;-56
2021/12/20 04:41:19;;;;;;;;;;;;;;;;;;4180860;28;7032;-56
2021/12/20 04:43:41;;;;;;;;;;;;;;;;;;4180590;28;7046;-56
2021/12/20 04:46:02;;;;;;;;;;;;;;;;;;4180881;28;7010;-56
2021/12/20 04:48:24;;;;;;;;;;;;;;;;;;4180770;28;7095;-56
2021/12/20 04:50:46;;;;;;;;;;;;;;;;;;4180691;28;7045;-56
2021/12/20 04:53:07;;;;;;;;;;;;;;;;;;4180924;28;7224;-56
2021/12/20 04:55:29;;;;;;;;;;;;;;;;;;4180452;28;8130;-56
2021/12/20 04:57:50;;;;;;;;;;;;;;;;;;4180589;28;7002;-56
2021/12/20 05:00:12;;;;;;;;;;;;;;;;;;4180515;28;7262;-56
2021/12/20 05:02:34;;;;;;;;;;;;;;;;;;4180546;28;7019;-56
2021/12/20 05:04:55;;;;;;;;;;;;;;;;;;4180669;28;7177;-56
2021/12/20 05:07:18;;;;;;;;;;;;;;;;;;4179622;28;7240;-56
2021/12/20 05:09:42;;;;;;;;;;;;;;;;;;4180767;28;7108;-56
2021/12/20 05:12:11;;;;;;;;;;;;;;;;;;4180623;28;7018;-56
2021/12/20 05:14:32;;;;;;;;;;;;;;;;;;4180555;28;7006;-56
2021/12/20 05:16:53;;;;;;;;;;;;;;;;;;4180663;28;6990;-56
2021/12/20 05:19:15;;;;;;;;;;;;;;;;;;4180621;28;7006;-56
2021/12/20 05:21:36;;;;;;;;;;;;;;;;;;4180529;28;7271;-56
2021/12/20 05:23:59;;;;;;;;;;;;;;;;;;4180459;28;7155;-56
2021/12/20 05:26:20;;;;;;;;;;;;;;;;;;4180520;28;7088;-56
2021/12/20 05:28:41;;;;;;;;;;;;;;;;;;4180311;28;7497;-56
2021/12/20 05:31:02;;;;;;;;;;;;;;;;;;4180375;28;7305;-56
2021/12/20 05:33:24;;;;;;;;;;;;;;;;;;4180351;28;7022;-56
2021/12/20 05:35:45;;;;;;;;;;;;;;;;;;4180366;28;7015;-56
2021/12/20 05:38:07;;;;;;;;;;;;;;;;;;4180361;28;7441;-56
2021/12/20 05:40:30;;;;;;;;;;;;;;;;;;4180361;28;6998;-56
2021/12/20 05:42:51;;;;;;;;;;;;;;;;;;4180246;28;7041;-56
2021/12/20 05:45:12;;;;;;;;;;;;;;;;;;4180101;28;7035;-55
2021/12/20 05:47:34;;;;;;;;;;;;;;;;;;4180094;28;7018;-56
2021/12/20 05:49:55;;;;;;;;;;;;;;;;;;4180328;28;6999;-56
2021/12/20 05:52:17;;;;;;;;;;;;;;;;;;4180228;28;7006;-56
2021/12/20 05:54:38;;;;;;;;;;;;;;;;;;4180257;28;7276;-56
2021/12/20 05:57:01;;;;;;;;;;;;;;;;;;4180191;28;7050;-56
2021/12/20 05:59:22;;;;;;;;;;;;;;;;;;4180095;28;7255;-57
2021/12/20 06:01:44;;;;;;;;;;;;;;;;;;4180410;28;7006;-56
2021/12/20 06:04:05;;;;;;;;;;;;;;;;;;4180125;28;7112;-56
2021/12/20 06:06:28;;;;;;;;;;;;;;;;;;4180099;28;7008;-56
2021/12/20 06:08:49;;;;;;;;;;;;;;;;;;4180167;28;7056;-56
2021/12/20 06:11:10;;;;;;;;;;;;;;;;;;4182763;28;7022;-56
2021/12/20 06:13:33;;;;;;;;;;;;;;;;;;4183055;28;7145;-56
2021/12/20 06:15:55;;;;;;;;;;;;;;;;;;4183250;28;7170;-56
2021/12/20 06:18:16;;;;;;;;;;;;;;;;;;4183061;28;7014;-56
2021/12/20 06:20:38;;;;;;;;;;;;;;;;;;4183079;28;7019;-56
2021/12/20 06:22:59;;;;;;;;;;;;;;;;;;4183044;28;7167;-56
2021/12/20 06:25:20;;;;;;;;;;;;;;;;;;4183000;28;7018;-56
2021/12/20 06:27:42;;;;;;;;;;;;;;;;;;4183178;28;7014;-56
2021/12/20 06:30:08;;;;;;;;;;;;;;;;;;4183072;28;7111;-56
2021/12/20 06:32:29;;;;;;;;;;;;;;;;;;4183063;28;7002;-56
2021/12/20 06:34:51;;;;;;;;;;;;;;;;;;4183206;28;6994;-56
2021/12/20 06:37:12;;;;;;;;;;;;;;;;;;4182981;28;7022;-56
2021/12/20 06:39:34;;;;;;;;;;;;;;;;;;4182971;28;7037;-56
2021/12/20 06:41:55;;;;;;;;;;;;;;;;;;4175150;28;7010;-55
2021/12/20 06:44:16;;;;;;;;;;;;;;;;;;4167136;28;7026;-56
2021/12/20 06:46:40;;;;;;;;;;;;;;;;;;4161777;28;7104;-56
2021/12/20 06:49:02;;;;;;;;;;;;;;;;;;4172465;28;7006;-55
2021/12/20 06:51:23;;;;;;;;;;;;;;;;;;4179025;28;7494;-55
2021/12/20 06:53:44;;;;;;;;;;;;;;;;;;4182094;28;7080;-55
2021/12/20 06:56:06;;;;;;;;;;;;;;;;;;4181687;28;7023;-55
2021/12/20 06:58:28;;;;;;;;;;;;;;;;;;4181818;28;7010;-54
2021/12/20 07:00:49;;;;;;;;;;;;;;;;;;4181659;28;7010;-55
2021/12/20 07:03:11;;;;;;;;;;;;;;;;;;4181502;28;7156;-55
2021/12/20 07:05:33;;;;;;;;;;;;;;;;;;4181758;28;7030;-55
2021/12/20 07:07:54;;;;;;;;;;;;;;;;;;4165512;28;7022;-55
2021/12/20 07:10:16;;;;;;;;;;;;;;;;;;4164384;28;7041;-55
2021/12/20 07:12:38;;;;;;;;;;;;;;;;;;4149163;28;7023;-54
2021/12/20 07:14:59;;;;;;;;;;;;;;;;;;4148996;28;7026;-54
2021/12/20 07:17:20;;;;;;;;;;;;;;;;;;4148468;28;7055;-55
2021/12/20 07:19:43;;;;;;;;;;;;;;;;;;4149071;28;7010;-55
2021/12/20 07:22:04;;;;;;;;;;;;;;;;;;4148874;28;6998;-54
2021/12/20 07:24:25;;;;;;;;;;;;;;;;;;4148413;28;7140;-55
2021/12/20 07:26:47;;;;;;;;;;;;;;;;;;4160029;28;7041;-54
2021/12/20 07:29:08;;;;;;;;;;;;;;;;;;4165163;28;7056;-56
2021/12/20 07:31:29;;;;;;;;;;;;;;;;;;4164578;28;7010;-56
2021/12/20 07:33:51;;;;;;;;;;;;;;;;;;4164967;28;7006;-55
2021/12/20 07:36:15;;;;;;;;;;;;;;;;;;4164935;28;7029;-55
2021/12/20 07:38:37;;;;;;;;;;;;;;;;;;4164343;28;7186;-55
2021/12/20 07:40:58;;;;;;;;;;;;;;;;;;4153242;28;7003;-55
2021/12/20 07:43:20;;;;;;;;;;;;;;;;;;4165156;28;7054;-54
2021/12/20 07:45:41;;;;;;;;;;;;;;;;;;4164861;28;7019;-54
2021/12/20 07:48:02;;;;;;;;;;;;;;;;;;4164634;28;7034;-54
2021/12/20 07:50:24;;;;;;;;;;;;;;;;;;4164891;28;7160;-54
2021/12/20 07:52:46;;;;;;;;;;;;;;;;;;4164780;28;7041;-54
2021/12/20 07:55:12;;;;;;;;;;;;;;;;;;4163594;28;7151;-54
2021/12/20 07:57:34;;;;;;;;;;;;;;;;;;4147602;28;7026;-54
2021/12/20 07:59:56;;;;;;;;;;;;;;;;;;4147622;28;7026;-54
2021/12/20 08:02:17;;;;;;;;;;;;;;;;;;4147510;28;7003;-54
2021/12/20 08:04:39;;;;;;;;;;;;;;;;;;4148454;28;7264;-54
2021/12/20 08:07:01;;;;;;;;;;;;;;;;;;4159866;28;7073;-54
2021/12/20 08:09:23;;;;;;;;;;;;;;;;;;4163622;28;7085;-54
2021/12/20 08:11:44;;;;;;;;;;;;;;;;;;4175156;28;7486;-54
2021/12/20 08:14:06;;;;;;;;;;;;;;;;;;4180526;28;7546;-55
2021/12/20 08:16:27;;;;;;;;;;;;;;;;;;4180198;28;7002;-54
2021/12/20 08:18:49;;;;;;;;;;;;;;;;;;4180521;28;7383;-54
2021/12/20 08:21:10;;;;;;;;;;;;;;;;;;4180467;28;7091;-54
2021/12/20 08:23:31;;;;;;;;;;;;;;;;;;4180085;28;6994;-54
2021/12/20 08:25:54;;;;;;;;;;;;;;;;;;4180456;28;7170;-53
2021/12/20 08:28:16;;;;;;;;;;;;;;;;;;4180440;28;6986;-53
2021/12/20 08:30:37;;;;;;;;;;;;;;;;;;4180169;28;7048;-54
2021/12/20 08:32:59;;;;;;;;;;;;;;;;;;4179802;28;7019;-53
2021/12/20 08:35:20;;;;;;;;;;;;;;;;;;4179917;28;7006;-53
2021/12/20 08:37:41;;;;;;;;;;;;;;;;;;4163447;28;7143;-54
2021/12/20 08:40:03;;;;;;;;;;;;;;;;;;4163782;28;7049;-53
2021/12/20 08:42:25;;;;;;;;;;;;;;;;;;4180312;28;7039;-54
2021/12/20 08:44:47;;;;;;;;;;;;;;;;;;4180280;28;6998;-53
2021/12/20 08:47:08;;;;;;;;;;;;;;;;;;4179936;28;7157;-54
2021/12/20 08:49:29;;;;;;;;;;;;;;;;;;4180053;28;7002;-54
2021/12/20 08:51:51;;;;;;;;;;;;;;;;;;4180031;28;7006;-54
2021/12/20 08:54:12;;;;;;;;;;;;;;;;;;4179625;28;7051;-54
2021/12/20 08:56:33;;;;;;;;;;;;;;;;;;4179902;28;7162;-54
2021/12/20 08:58:56;;;;;;;;;;;;;;;;;;4179919;28;7006;-54
2021/12/20 09:01:18;;;;;;;;;;;;;;;;;;4179421;28;7014;-56
2021/12/20 09:03:40;;;;;;;;;;;;;;;;;;4179771;28;8020;-57
2021/12/20 09:06:01;;;;;;;;;;;;;;;;;;4179887;28;7002;-55
2021/12/20 09:08:23;;;;;;;;;;;;;;;;;;4179374;28;7010;-55
2021/12/20 09:10:47;;;;;;;;;;;;;;;;;;4179512;28;7030;-54
2021/12/20 09:13:08;;;;;;;;;;;;;;;;;;4180332;28;7150;-53
2021/12/20 09:15:31;;;;;;;;;;;;;;;;;;4180422;28;7127;-53
2021/12/20 09:17:53;;;;;;;;;;;;;;;;;;4180646;28;7022;-54
2021/12/20 09:20:15;;;;;;;;;;;;;;;;;;4180651;28;6986;-54
2021/12/20 09:22:48;;;;;;;;;;;;;;;;;;4180403;28;7177;-53
2021/12/20 09:25:09;;;;;;;;;;;;;;;;;;4180322;28;7054;-53
2021/12/20 09:27:31;;;;;;;;;;;;;;;;;;4164018;28;7123;-53
2021/12/20 09:29:52;;;;;;;;;;;;;;;;;;4170243;28;7029;-53
2021/12/20 09:32:14;;;;;;;;;;;;;;;;;;4180300;28;7006;-54
2021/12/20 09:34:36;;;;;;;;;;;;;;;;;;4180381;28;6994;-53
2021/12/20 09:36:58;;;;;;;;;;;;;;;;;;4180096;28;7026;-53
2021/12/20 09:39:21;;;;;;;;;;;;;;;;;;4180067;28;7170;-53
2021/12/20 09:42:01;;;;;;;;;;;;;;;;;;4180083;28;7010;-53
2021/12/20 09:44:24;;;;;;;;;;;;;;;;;;4181494;28;7130;-55
2021/12/20 09:46:45;;;;;;;;;;;;;;;;;;4183335;28;7013;-53
2021/12/20 09:49:08;;;;;;;;;;;;;;;;;;4183299;28;7002;-53
2021/12/20 09:51:29;;;;;;;;;;;;;;;;;;4183142;28;7002;-53
2021/12/20 09:53:50;;;;;;;;;;;;;;;;;;4183238;28;7002;-54
2021/12/20 09:56:12;;;;;;;;;;;;;;;;;;4182988;28;7006;-53
2021/12/20 09:58:34;;;;;;;;;;;;;;;;;;4183133;28;6994;-53
2021/12/20 10:00:55;;;;;;;;;;;;;;;;;;4183372;28;7171;-53
2021/12/20 10:03:19;;;;;;;;;;;;;;;;;;4183171;28;7040;-53
2021/12/20 10:05:43;;;;;;;;;;;;;;;;;;4181812;28;7056;-53
2021/12/20 10:08:13;;;;;;;;;;;;;;;;;;4181709;28;7050;-54
2021/12/20 10:10:35;;;;;;;;;;;;;;;;;;4181371;28;7017;-53
2021/12/20 10:12:56;;;;;;;;;;;;;;;;;;4181130;28;7059;-53
2021/12/20 10:15:18;;;;;;;;;;;;;;;;;;4181635;28;6982;-53
2021/12/20 10:17:50;;;;;;;;;;;;;;;;;;4181463;28;6994;-53
2021/12/20 10:20:15;;;;;;;;;;;;;;;;;;4181189;28;6986;-53
2021/12/20 10:22:38;;;;;;;;;;;;;;;;;;4181275;28;7158;-53
2021/12/20 10:24:59;;;;;;;;;;;;;;;;;;4179059;28;7041;-53
2021/12/20 10:27:31;;;;;;;;;;;;;;;;;;4179950;28;7006;-53
2021/12/20 10:29:52;;;;;;;;;;;;;;;;;;4180549;28;7061;-54
2021/12/20 10:32:13;;;;;;;;;;;;;;;;;;4180337;28;7044;-53
2021/12/20 10:34:35;;;;;;;;;;;;;;;;;;4180464;28;7128;-54
2021/12/20 10:36:58;;;;;;;;;;;;;;;;;;4180449;28;6998;-54
2021/12/20 10:39:34;;;;;;;;;;;;;;;;;;4180394;28;7735;-53
2021/12/20 10:42:00;;;;;;;;;;;;;;;;;;4177638;28;7051;-53
2021/12/20 10:44:24;;;;;;;;;;;;;;;;;;4180816;28;7223;-53
2021/12/20 10:46:46;;;;;;;;;;;;;;;;;;4180152;28;7057;-53
2021/12/20 10:49:10;;;;;;;;;;;;;;;;;;4180244;28;7064;-53
2021/12/20 10:51:32;;;;;;;;;;;;;;;;;;4180617;28;7022;-53
2021/12/20 10:53:58;;;;;;;;;;;;;;;;;;4179954;28;7037;-52
2021/12/20 10:56:21;;;;;;;;;;;;;;;;;;4178871;28;7006;-53
2021/12/20 10:58:42;;;;;;;;;;;;;;;;;;4180291;28;7055;-53
2021/12/20 11:01:04;;;;;;;;;;;;;;;;;;4179232;28;7015;-53
2021/12/20 11:03:28;;;;;;;;;;;;;;;;;;4179574;28;7179;-53
2021/12/20 11:06:13;;;;;;;;;;;;;;;;;;4179512;28;7002;-52
2021/12/20 11:11:14;;;;;;;;;;;;;;;;;;4179180;28;7049;-52
2021/12/20 11:13:39;;;;;;;;;;;;;;;;;;4178996;28;7026;-53
2021/12/20 11:16:16;;;;;;;;;;;;;;;;;;4180162;28;7002;-52
2021/12/20 11:18:39;;;;;;;;;;;;;;;;;;4178881;28;7325;-53
2021/12/20 11:21:11;;;;;;;;;;;;;;;;;;4179589;28;7014;-53
2021/12/20 11:23:33;;;;;;;;;;;;;;;;;;4179589;28;7349;-52
2021/12/20 11:25:54;;;;;;;;;;;;;;;;;;4178769;28;7018;-52
2021/12/20 11:28:16;;;;;;;;;;;;;;;;;;4179886;28;7096;-52
2021/12/20 11:30:39;;;;;;;;;;;;;;;;;;4179415;28;7187;-52
2021/12/20 11:33:00;;;;;;;;;;;;;;;;;;4179060;28;7430;-52
2021/12/20 11:35:23;;;;;;;;;;;;;;;;;;4179366;28;7394;-53
2021/12/20 11:37:45;;;;;;;;;;;;;;;;;;4163084;28;7042;-53
2021/12/20 11:40:07;;;;;;;;;;;;;;;;;;4162732;28;7023;-52
2021/12/20 11:42:30;;;;;;;;;;;;;;;;;;4177347;28;7006;-53
2021/12/20 11:44:55;;;;;;;;;;;;;;;;;;4179864;28;6986;-52
2021/12/20 11:47:20;;;;;;;;;;;;;;;;;;4178754;28;7076;-52
2021/12/20 11:49:41;;;;;;;;;;;;;;;;;;4179847;28;7558;-53
2021/12/20 11:52:04;;;;;;;;;;;;;;;;;;4180297;28;7018;-53
2021/12/20 11:54:33;;;;;;;;;;;;;;;;;;4178479;28;6994;-54
2021/12/20 11:56:54;;;;;;;;;;;;;;;;;;4175450;28;7038;-53
2021/12/20 11:59:16;;;;;;;;;;;;;;;;;;4180212;28;7006;-51
2021/12/20 12:01:37;;;;;;;;;;;;;;;;;;4179803;28;7020;-52
2021/12/20 12:04:00;;;;;;;;;;;;;;;;;;4179576;28;6990;-52
2021/12/20 12:06:24;;;;;;;;;;;;;;;;;;4179481;28;7060;-51
2021/12/20 12:08:55;;;;;;;;;;;;;;;;;;4179068;28;7374;-51
2021/12/20 12:11:31;;;;;;;;;;;;;;;;;;4179277;28;7049;-52
2021/12/20 12:14:07;;;;;;;;;;;;;;;;;;4179704;28;7047;-54
2021/12/20 12:16:49;;;;;;;;;;;;;;;;;;4179425;28;7006;-52
2021/12/20 12:19:16;;;;;;;;;;;;;;;;;;4179470;28;7014;-53
2021/12/20 12:21:40;;;;;;;;;;;;;;;;;;4179403;28;7399;-52
2021/12/20 12:24:01;;;;;;;;;;;;;;;;;;4178244;28;7011;-53
2021/12/20 12:26:29;;;;;;;;;;;;;;;;;;4178645;28;7525;-53
2021/12/20 12:28:54;;;;;;;;;;;;;;;;;;4179404;28;7037;-52
2021/12/20 12:31:15;;;;;;;;;;;;;;;;;;4179763;28;7245;-53
2021/12/20 12:33:38;;;;;;;;;;;;;;;;;;4179140;28;7316;-55
2021/12/20 12:36:08;;;;;;;;;;;;;;;;;;4179286;28;7006;-52
2021/12/20 12:38:32;;;;;;;;;;;;;;;;;;4179638;28;7134;-52
2021/12/20 12:41:08;;;;;;;;;;;;;;;;;;4178565;28;7041;-53
2021/12/20 12:43:45;;;;;;;;;;;;;;;;;;4177945;28;7015;-51
2021/12/20 12:46:06;;;;;;;;;;;;;;;;;;4176485;28;7072;-52
2021/12/20 12:48:35;;;;;;;;;;;;;;;;;;4178012;28;7048;-53
2021/12/20 12:50:56;;;;;;;;;;;;;;;;;;4178475;28;7210;-51
2021/12/20 12:53:35;;;;;;;;;;;;;;;;;;4177936;28;7055;-51
2021/12/20 12:55:58;;;;;;;;;;;;;;;;;;4177059;28;7074;-51
2021/12/20 12:58:20;;;;;;;;;;;;;;;;;;4178378;28;6994;-51
2021/12/20 13:00:42;;;;;;;;;;;;;;;;;;4178087;28;7174;-52
2021/12/20 13:03:14;;;;;;;;;;;;;;;;;;4178785;28;7048;-52
2021/12/20 13:05:37;;;;;;;;;;;;;;;;;;4178049;28;7153;-52
2021/12/20 13:08:01;;;;;;;;;;;;;;;;;;4178092;28;7006;-52
2021/12/20 13:10:30;;;;;;;;;;;;;;;;;;4178227;28;7055;-52
2021/12/20 13:12:55;;;;;;;;;;;;;;;;;;4167438;28;7002;-53
2021/12/20 13:15:22;;;;;;;;;;;;;;;;;;4174655;28;7112;-52
2021/12/20 13:17:44;;;;;;;;;;;;;;;;;;4175692;28;7026;-52
2021/12/20 13:20:11;;;;;;;;;;;;;;;;;;4175501;28;7517;-52
2021/12/20 13:22:32;;;;;;;;;;;;;;;;;;4176540;28;7564;-52
2021/12/20 13:24:54;;;;;;;;;;;;;;;;;;4175990;28;7034;-52
2021/12/20 13:27:16;;;;;;;;;;;;;;;;;;4175341;28;7022;-52
2021/12/20 13:29:38;;;;;;;;;;;;;;;;;;4174805;28;7050;-52
2021/12/20 13:32:06;;;;;;;;;;;;;;;;;;4175337;28;7014;-52
2021/12/20 13:34:27;;;;;;;;;;;;;;;;;;4176739;28;7458;-52
2021/12/20 13:36:51;;;;;;;;;;;;;;;;;;4177182;28;7102;-52
2021/12/20 13:39:12;;;;;;;;;;;;;;;;;;4175016;28;7175;-52
2021/12/20 13:41:34;;;;;;;;;;;;;;;;;;4172839;28;7019;-51
2021/12/20 13:43:59;;;;;;;;;;;;;;;;;;4175122;28;7411;-52
2021/12/20 13:49:01;;;;;;;;;;;;;;;;;;4175808;28;7018;-52
2021/12/20 13:51:23;;;;;;;;;;;;;;;;;;4176128;28;7010;-52
2021/12/20 13:53:44;;;;;;;;;;;;;;;;;;4175821;28;7722;-52
2021/12/20 13:56:05;;;;;;;;;;;;;;;;;;4175991;28;6994;-52
2021/12/20 13:58:27;;;;;;;;;;;;;;;;;;4176239;28;7022;-51
2021/12/20 14:00:48;;;;;;;;;;;;;;;;;;4176618;28;7115;-52
2021/12/20 14:03:11;;;;;;;;;;;;;;;;;;4176737;28;7115;-52
2021/12/20 14:05:37;;;;;;;;;;;;;;;;;;4177175;28;7160;-52
2021/12/20 14:08:00;;;;;;;;;;;;;;;;;;4175847;28;7332;-52
2021/12/20 14:10:22;;;;;;;;;;;;;;;;;;4177025;28;7022;-52
2021/12/20 14:12:44;;;;;;;;;;;;;;;;;;4178284;28;7022;-51
2021/12/20 14:15:07;;;;;;;;;;;;;;;;;;4177512;28;7173;-52
2021/12/20 14:17:28;;;;;;;;;;;;;;;;;;4178206;28;7060;-51
2021/12/20 14:19:58;;;;;;;;;;;;;;;;;;4177710;28;6998;-51
2021/12/20 14:22:20;;;;;;;;;;;;;;;;;;4176842;28;7026;-52
2021/12/20 14:24:41;;;;;;;;;;;;;;;;;;4177026;28;7454;-52
2021/12/20 14:27:03;;;;;;;;;;;;;;;;;;4178055;28;7473;-53
2021/12/20 14:29:24;;;;;;;;;;;;;;;;;;4177411;28;7127;-52
2021/12/20 14:31:51;;;;;;;;;;;;;;;;;;4179403;28;7150;-51
2021/12/20 14:34:12;;;;;;;;;;;;;;;;;;4181440;28;7007;-51
2021/12/20 14:36:36;;;;;;;;;;;;;;;;;;4181219;28;6996;-52
2021/12/20 14:38:58;;;;;;;;;;;;;;;;;;4179101;28;7006;-51
2021/12/20 14:41:25;;;;;;;;;;;;;;;;;;4179171;28;6994;-52
2021/12/20 14:43:46;;;;;;;;;;;;;;;;;;4181288;28;7894;-53
2021/12/20 14:46:09;;;;;;;;;;;;;;;;;;4179912;28;7080;-52
2021/12/20 14:48:35;;;;;;;;;;;;;;;;;;4179818;28;7129;-52
2021/12/20 14:50:56;;;;;;;;;;;;;;;;;;4178837;28;7446;-52
2021/12/20 14:53:19;;;;;;;;;;;;;;;;;;4178410;28;7002;-51
2021/12/20 14:55:41;;;;;;;;;;;;;;;;;;4178732;28;6990;-52
2021/12/20 14:58:02;;;;;;;;;;;;;;;;;;4179280;28;7076;-52
2021/12/20 15:00:25;;;;;;;;;;;;;;;;;;4180579;28;7019;-52
2021/12/20 15:02:46;;;;;;;;;;;;;;;;;;4182356;28;6998;-52
2021/12/20 15:05:10;;;;;;;;;;;;;;;;;;4182422;28;7006;-52
2021/12/20 15:07:32;;;;;;;;;;;;;;;;;;4182153;28;7111;-52
2021/12/20 15:09:55;;;;;;;;;;;;;;;;;;4182569;28;7386;-51
2021/12/20 15:12:16;;;;;;;;;;;;;;;;;;4182049;28;7376;-51
2021/12/20 15:14:38;;;;;;;;;;;;;;;;;;4182450;28;7018;-52
2021/12/20 15:16:59;;;;;;;;;;;;;;;;;;4182325;28;7008;-52
2021/12/20 15:19:20;;;;;;;;;;;;;;;;;;4182324;28;7002;-52
2021/12/20 15:21:41;;;;;;;;;;;;;;;;;;4182367;28;7154;-52
2021/12/20 15:24:03;;;;;;;;;;;;;;;;;;4182118;28;6990;-52
2021/12/20 15:26:25;;;;;;;;;;;;;;;;;;4181779;28;7018;-51
2021/12/20 15:28:47;;;;;;;;;;;;;;;;;;4181975;28;7118;-51
2021/12/20 15:31:08;;;;;;;;;;;;;;;;;;4182108;28;7050;-52
2021/12/20 15:33:29;;;;;;;;;;;;;;;;;;4178024;28;7142;-53
2021/12/20 15:35:51;;;;;;;;;;;;;;;;;;4181398;28;7006;-52
2021/12/20 15:38:12;;;;;;;;;;;;;;;;;;4181311;28;7290;-53
2021/12/20 15:40:33;;;;;;;;;;;;;;;;;;4180688;28;7222;-53
2021/12/20 15:43:01;;;;;;;;;;;;;;;;;;4181025;28;7019;-53
2021/12/20 15:45:22;;;;;;;;;;;;;;;;;;4181455;28;7015;-54
2021/12/20 15:47:43;;;;;;;;;;;;;;;;;;4180915;28;7014;-53
2021/12/20 15:50:06;;;;;;;;;;;;;;;;;;4181128;28;7144;-53
2021/12/20 15:52:27;;;;;;;;;;;;;;;;;;4181204;28;7177;-55
2021/12/20 15:54:48;;;;;;;;;;;;;;;;;;4181528;28;7076;-53
2021/12/20 15:57:10;;;;;;;;;;;;;;;;;;4181600;28;7010;-53
2021/12/20 15:59:33;;;;;;;;;;;;;;;;;;4181605;28;7043;-54
2021/12/20 16:01:54;;;;;;;;;;;;;;;;;;4181551;28;7006;-53
2021/12/20 16:04:16;;;;;;;;;;;;;;;;;;4181819;28;7100;-53
2021/12/20 16:06:37;;;;;;;;;;;;;;;;;;4181301;28;7175;-53
2021/12/20 16:08:58;;;;;;;;;;;;;;;;;;4181455;28;7019;-54
2021/12/20 16:11:19;;;;;;;;;;;;;;;;;;4180396;28;7002;-54
2021/12/20 16:13:41;;;;;;;;;;;;;;;;;;4181347;28;7006;-53
2021/12/20 16:16:04;;;;;;;;;;;;;;;;;;4180942;28;7041;-53
2021/12/20 16:18:25;;;;;;;;;;;;;;;;;;4180759;28;7018;-53
2021/12/20 16:20:46;;;;;;;;;;;;;;;;;;4181190;28;7029;-53
2021/12/20 16:23:08;;;;;;;;;;;;;;;;;;4181249;28;7002;-53
2021/12/20 16:25:29;;;;;;;;;;;;;;;;;;4180558;28;7613;-53
2021/12/20 16:27:51;;;;;;;;;;;;;;;;;;4180618;28;7022;-55
2021/12/20 16:30:13;;;;;;;;;;;;;;;;;;4179859;28;7010;-53
2021/12/20 16:32:37;;;;;;;;;;;;;;;;;;4181187;28;7139;-53
2021/12/20 16:34:58;;;;;;;;;;;;;;;;;;4180887;28;7323;-53
2021/12/20 16:37:19;;;;;;;;;;;;;;;;;;4180239;28;7006;-53
2021/12/20 16:39:41;;;;;;;;;;;;;;;;;;4178338;28;7002;-53
2021/12/20 16:42:02;;;;;;;;;;;;;;;;;;4179512;28;6995;-53
2021/12/20 16:44:25;;;;;;;;;;;;;;;;;;4179555;28;7014;-53
2021/12/20 16:46:56;;;;;;;;;;;;;;;;;;4177246;28;7314;-55